createdAt,value
2017-04-09T00:00:54.604Z,0
2017-04-09T00:01:53.976Z,0
2017-04-09T00:02:54.857Z,0
2017-04-09T00:03:54.538Z,0
2017-04-09T00:04:54.814Z,0
2017-04-09T00:05:54.477Z,0
2017-04-09T00:06:54.757Z,0
2017-04-09T00:07:54.747Z,0
2017-04-09T00:08:54.462Z,0
2017-04-09T00:09:54.690Z,0
2017-04-09T00:10:54.685Z,0
2017-04-09T00:11:54.636Z,0
2017-04-09T00:12:55.382Z,0
2017-04-09T00:13:54.889Z,0
2017-04-09T00:14:54.580Z,0
2017-04-09T00:15:54.010Z,0
2017-04-09T00:16:54.322Z,0
2017-04-09T00:17:54.190Z,0
2017-04-09T00:18:54.473Z,0
2017-04-09T00:19:54.466Z,0
2017-04-09T00:20:54.125Z,0
2017-04-09T00:21:54.408Z,0
2017-04-09T00:22:54.410Z,0
2017-04-09T00:23:54.059Z,0
2017-04-09T00:24:54.328Z,0
2017-04-09T00:25:54.355Z,0
2017-04-09T00:26:53.984Z,0
2017-04-09T00:27:54.256Z,0
2017-04-09T00:28:54.235Z,0
2017-04-09T00:29:54.203Z,0
2017-04-09T00:30:53.931Z,0
2017-04-09T00:31:53.922Z,0
2017-04-09T00:32:53.994Z,0
2017-04-09T00:33:54.113Z,0
2017-04-09T00:34:54.140Z,0
2017-04-09T00:35:53.767Z,0
2017-04-09T00:36:54.043Z,0
2017-04-09T00:37:54.027Z,0
2017-04-09T00:38:54.342Z,0
2017-04-09T00:39:53.690Z,0
2017-04-09T00:40:53.943Z,0
2017-04-09T00:41:53.361Z,0
2017-04-09T00:42:53.895Z,0
2017-04-09T00:43:53.871Z,0
2017-04-09T00:44:54.488Z,0
2017-04-09T00:45:53.521Z,0
2017-04-09T00:46:53.504Z,0
2017-04-09T00:47:53.823Z,0
2017-04-09T00:48:53.457Z,0
2017-04-09T00:49:53.730Z,0
2017-04-09T00:50:53.722Z,0
2017-04-09T00:51:53.684Z,0
2017-04-09T00:52:53.718Z,0
2017-04-09T00:53:53.637Z,0
2017-04-09T00:54:53.626Z,0
2017-04-09T00:55:53.279Z,0
2017-04-09T00:56:53.574Z,0
2017-04-09T00:57:53.600Z,0
2017-04-09T00:58:53.769Z,0
2017-04-09T00:59:53.536Z,0
2017-04-09T01:00:53.463Z,0
2017-04-09T01:01:53.093Z,0
2017-04-09T01:02:53.428Z,0
2017-04-09T01:03:53.109Z,0
2017-04-09T01:04:53.364Z,0
2017-04-09T01:05:53.093Z,0
2017-04-09T01:06:53.319Z,0
2017-04-09T01:07:52.999Z,0
2017-04-09T01:08:52.967Z,0
2017-04-09T01:09:53.249Z,0
2017-04-09T01:10:52.922Z,0
2017-04-09T01:11:53.197Z,0
2017-04-09T01:12:53.182Z,0
2017-04-09T01:13:53.151Z,0
2017-04-09T01:14:52.816Z,0
2017-04-09T01:15:53.260Z,0
2017-04-09T01:16:51.895Z,0
2017-04-09T01:17:53.367Z,0
2017-04-09T01:18:52.730Z,0
2017-04-09T01:19:53.053Z,0
2017-04-09T01:20:52.380Z,0
2017-04-09T01:21:52.666Z,0
2017-04-09T01:22:52.926Z,0
2017-04-09T01:23:52.904Z,0
2017-04-09T01:24:52.895Z,0
2017-04-09T01:25:52.868Z,0
2017-04-09T01:26:52.837Z,0
2017-04-09T01:27:52.510Z,0
2017-04-09T01:28:52.827Z,0
2017-04-09T01:29:52.757Z,0
2017-04-09T01:30:52.788Z,0
2017-04-09T01:31:52.725Z,0
2017-04-09T01:32:52.381Z,0
2017-04-09T01:33:52.668Z,0
2017-04-09T01:34:52.639Z,0
2017-04-09T01:35:52.613Z,0
2017-04-09T01:36:52.606Z,0
2017-04-09T01:37:52.259Z,0
2017-04-09T01:38:52.249Z,0
2017-04-09T01:39:52.518Z,0
2017-04-09T01:40:52.495Z,0
2017-04-09T01:41:52.475Z,0
2017-04-09T01:42:52.644Z,0
2017-04-09T01:43:52.423Z,0
2017-04-09T01:44:52.448Z,0
2017-04-09T01:45:52.365Z,0
2017-04-09T01:46:52.408Z,0
2017-04-09T01:47:52.378Z,0
2017-04-09T01:48:52.352Z,0
2017-04-09T01:49:52.277Z,0
2017-04-09T01:50:52.254Z,0
2017-04-09T01:51:51.919Z,0
2017-04-09T01:52:52.203Z,0
2017-04-09T01:53:52.171Z,0
2017-04-09T01:54:52.144Z,0
2017-04-09T01:55:52.116Z,0
2017-04-09T01:56:52.105Z,0
2017-04-09T01:57:51.805Z,0
2017-04-09T01:58:51.757Z,0
2017-04-09T01:59:52.027Z,0
2017-04-09T02:00:52.006Z,0
2017-04-09T02:01:51.974Z,0
2017-04-09T02:02:51.959Z,0
2017-04-09T02:03:51.929Z,0
2017-04-09T02:04:51.606Z,0
2017-04-09T02:05:51.890Z,0
2017-04-09T02:06:51.551Z,0
2017-04-09T02:07:51.831Z,0
2017-04-09T02:08:51.506Z,0
2017-04-09T02:09:51.782Z,0
2017-04-09T02:10:51.448Z,0
2017-04-09T02:11:51.426Z,0
2017-04-09T02:12:51.701Z,0
2017-04-09T02:13:51.682Z,0
2017-04-09T02:14:51.657Z,0
2017-04-09T02:15:51.479Z,0
2017-04-09T02:16:51.606Z,0
2017-04-09T02:17:51.591Z,0
2017-04-09T02:18:51.563Z,0
2017-04-09T02:19:51.531Z,0
2017-04-09T02:20:51.501Z,0
2017-04-09T02:21:51.496Z,0
2017-04-09T02:22:51.452Z,0
2017-04-09T02:23:51.181Z,0
2017-04-09T02:24:51.408Z,0
2017-04-09T02:25:51.377Z,0
2017-04-09T02:26:51.364Z,0
2017-04-09T02:27:51.334Z,0
2017-04-09T02:28:51.307Z,0
2017-04-09T02:29:51.291Z,0
2017-04-09T02:30:51.211Z,0
2017-04-09T02:31:51.230Z,0
2017-04-09T02:32:51.208Z,0
2017-04-09T02:33:50.881Z,0
2017-04-09T02:34:52.115Z,0
2017-04-09T02:35:51.149Z,0
2017-04-09T02:36:50.820Z,0
2017-04-09T02:37:50.782Z,0
2017-04-09T02:38:51.060Z,0
2017-04-09T02:39:51.068Z,0
2017-04-09T02:40:51.113Z,0
2017-04-09T02:41:50.993Z,0
2017-04-09T02:42:50.975Z,0
2017-04-09T02:43:51.539Z,0
2017-04-09T02:44:51.067Z,0
2017-04-09T02:45:50.599Z,0
2017-04-09T02:46:50.868Z,0
2017-04-09T02:47:50.850Z,0
2017-04-09T02:48:50.825Z,0
2017-04-09T02:49:50.791Z,0
2017-04-09T02:50:50.810Z,0
2017-04-09T02:51:50.436Z,0
2017-04-09T02:52:50.723Z,0
2017-04-09T02:53:50.690Z,0
2017-04-09T02:54:50.707Z,0
2017-04-09T02:55:50.350Z,0
2017-04-09T02:56:50.815Z,0
2017-04-09T02:57:50.592Z,0
2017-04-09T02:58:50.257Z,0
2017-04-09T02:59:50.536Z,0
2017-04-09T03:00:50.510Z,0
2017-04-09T03:01:50.496Z,0
2017-04-09T03:02:50.480Z,0
2017-04-09T03:03:50.444Z,0
2017-04-09T03:04:50.429Z,0
2017-04-09T03:05:50.124Z,0
2017-04-09T03:06:50.363Z,0
2017-04-09T03:07:50.338Z,0
2017-04-09T03:08:50.323Z,0
2017-04-09T03:09:49.988Z,0
2017-04-09T03:10:50.272Z,0
2017-04-09T03:11:50.460Z,0
2017-04-09T03:12:49.918Z,0
2017-04-09T03:13:49.635Z,0
2017-04-09T03:14:49.862Z,0
2017-04-09T03:15:49.836Z,0
2017-04-09T03:16:49.818Z,0
2017-04-09T03:17:50.294Z,0
2017-04-09T03:18:50.068Z,0
2017-04-09T03:19:49.742Z,0
2017-04-09T03:20:50.019Z,0
2017-04-09T03:21:49.997Z,0
2017-04-09T03:22:50.019Z,0
2017-04-09T03:23:49.945Z,0
2017-04-09T03:24:49.913Z,0
2017-04-09T03:25:49.893Z,0
2017-04-09T03:26:49.919Z,0
2017-04-09T03:27:50.700Z,0
2017-04-09T03:28:50.046Z,0
2017-04-09T03:29:49.795Z,0
2017-04-09T03:30:49.773Z,0
2017-04-09T03:31:49.746Z,0
2017-04-09T03:32:49.461Z,0
2017-04-09T03:33:49.145Z,0
2017-04-09T03:34:49.671Z,0
2017-04-09T03:35:49.637Z,0
2017-04-09T03:36:49.616Z,0
2017-04-09T03:37:49.607Z,0
2017-04-09T03:38:49.578Z,0
2017-04-09T03:39:49.243Z,0
2017-04-09T03:40:49.514Z,0
2017-04-09T03:41:49.547Z,0
2017-04-09T03:42:49.175Z,0
2017-04-09T03:43:49.445Z,0
2017-04-09T03:44:49.423Z,0
2017-04-09T03:45:49.394Z,0
2017-04-09T03:46:49.428Z,0
2017-04-09T03:47:49.447Z,0
2017-04-09T03:48:48.714Z,0
2017-04-09T03:49:49.291Z,0
2017-04-09T03:50:49.275Z,0
2017-04-09T03:51:48.946Z,0
2017-04-09T03:52:48.911Z,0
2017-04-09T03:53:49.229Z,0
2017-04-09T03:54:49.162Z,0
2017-04-09T03:55:49.137Z,0
2017-04-09T03:56:49.114Z,0
2017-04-09T03:57:49.091Z,0
2017-04-09T03:58:48.759Z,0
2017-04-09T03:59:49.044Z,0
2017-04-09T04:00:49.014Z,0
2017-04-09T04:01:48.990Z,0
2017-04-09T04:02:48.967Z,0
2017-04-09T04:03:48.950Z,0
2017-04-09T04:04:48.669Z,0
2017-04-09T04:05:48.939Z,0
2017-04-09T04:06:48.866Z,0
2017-04-09T04:07:48.859Z,0
2017-04-09T04:08:48.817Z,0
2017-04-09T04:09:48.790Z,0
2017-04-09T04:10:48.823Z,0
2017-04-09T04:11:48.733Z,0
2017-04-09T04:12:48.422Z,0
2017-04-09T04:13:48.439Z,0
2017-04-09T04:14:48.672Z,0
2017-04-09T04:15:48.691Z,0
2017-04-09T04:16:48.620Z,0
2017-04-09T04:17:48.643Z,0
2017-04-09T04:18:48.568Z,0
2017-04-09T04:19:47.990Z,0
2017-04-09T04:20:48.529Z,0
2017-04-09T04:21:48.486Z,0
2017-04-09T04:22:48.668Z,0
2017-04-09T04:23:48.439Z,0
2017-04-09T04:24:48.418Z,0
2017-04-09T04:25:48.391Z,0
2017-04-09T04:26:48.379Z,0
2017-04-09T04:27:48.042Z,0
2017-04-09T04:28:48.319Z,0
2017-04-09T04:29:48.294Z,0
2017-04-09T04:30:48.268Z,0
2017-04-09T04:31:48.231Z,0
2017-04-09T04:32:48.208Z,0
2017-04-09T04:33:47.891Z,0
2017-04-09T04:34:48.196Z,0
2017-04-09T04:35:47.841Z,0
2017-04-09T04:36:48.112Z,0
2017-04-09T04:37:47.838Z,0
2017-04-09T04:38:48.047Z,5
2017-04-09T04:39:48.040Z,5
2017-04-09T04:40:48.019Z,5
2017-04-09T04:41:47.988Z,5
2017-04-09T04:42:47.967Z,5
2017-04-09T04:43:48.147Z,5
2017-04-09T04:44:47.917Z,5
2017-04-09T04:45:47.925Z,5
2017-04-09T04:46:47.606Z,10
2017-04-09T04:47:47.840Z,10
2017-04-09T04:48:47.515Z,10
2017-04-09T04:49:47.815Z,10
2017-04-09T04:50:47.761Z,10
2017-04-09T04:51:47.743Z,15
2017-04-09T04:52:47.720Z,15
2017-04-09T04:53:47.697Z,15
2017-04-09T04:54:47.660Z,15
2017-04-09T04:55:47.646Z,20
2017-04-09T04:56:47.605Z,20
2017-04-09T04:57:47.592Z,25
2017-04-09T04:58:47.567Z,25
2017-04-09T04:59:47.736Z,25
2017-04-09T05:00:47.512Z,30
2017-04-09T05:01:47.481Z,30
2017-04-09T05:02:47.460Z,30
2017-04-09T05:03:47.434Z,35
2017-04-09T05:04:47.107Z,35
2017-04-09T05:05:47.383Z,40
2017-04-09T05:06:47.359Z,40
2017-04-09T05:07:47.023Z,45
2017-04-09T05:08:47.309Z,45
2017-04-09T05:09:47.291Z,45
2017-04-09T05:10:47.256Z,45
2017-04-09T05:11:47.231Z,50
2017-04-09T05:12:46.907Z,55
2017-04-09T05:13:47.195Z,55
2017-04-09T05:14:47.164Z,60
2017-04-09T05:15:47.123Z,65
2017-04-09T05:16:47.107Z,65
2017-04-09T05:17:47.130Z,65
2017-04-09T05:18:47.065Z,70
2017-04-09T05:19:47.041Z,70
2017-04-09T05:20:46.741Z,75
2017-04-09T05:21:46.678Z,80
2017-04-09T05:22:46.955Z,85
2017-04-09T05:23:47.125Z,85
2017-04-09T05:24:46.915Z,90
2017-04-09T05:25:46.927Z,95
2017-04-09T05:26:46.855Z,95
2017-04-09T05:27:46.526Z,100
2017-04-09T05:28:46.831Z,100
2017-04-09T05:29:46.787Z,105
2017-04-09T05:31:46.728Z,110
2017-04-09T05:32:46.721Z,115
2017-04-09T05:33:46.686Z,115
2017-04-09T05:34:46.693Z,115
2017-04-09T05:35:46.662Z,120
2017-04-09T05:36:46.312Z,120
2017-04-09T05:37:46.285Z,125
2017-04-09T05:38:46.564Z,125
2017-04-09T05:39:46.267Z,130
2017-04-09T05:40:46.515Z,135
2017-04-09T05:41:46.236Z,135
2017-04-09T05:42:46.466Z,140
2017-04-09T05:43:46.702Z,145
2017-04-09T05:44:46.484Z,150
2017-04-09T05:45:46.403Z,150
2017-04-09T05:46:46.074Z,155
2017-04-09T05:47:46.373Z,160
2017-04-09T05:48:46.322Z,165
2017-04-09T05:49:46.555Z,165
2017-04-09T05:50:46.366Z,175
2017-04-09T05:51:46.904Z,185
2017-04-09T05:52:46.232Z,190
2017-04-09T05:53:46.210Z,205
2017-04-09T05:54:46.186Z,220
2017-04-09T05:55:46.429Z,225
2017-04-09T05:56:46.139Z,235
2017-04-09T05:57:46.112Z,245
2017-04-09T05:58:45.784Z,255
2017-04-09T05:59:46.075Z,260
2017-04-09T06:00:46.044Z,265
2017-04-09T06:01:46.037Z,270
2017-04-09T06:02:45.697Z,270
2017-04-09T06:03:45.990Z,280
2017-04-09T06:04:46.403Z,285
2017-04-09T06:05:45.941Z,295
2017-04-09T06:06:45.920Z,295
2017-04-09T06:07:45.895Z,305
2017-04-09T06:08:45.860Z,305
2017-04-09T06:09:45.542Z,315
2017-04-09T06:10:45.819Z,325
2017-04-09T06:11:45.796Z,335
2017-04-09T06:12:45.775Z,345
2017-04-09T06:13:45.454Z,355
2017-04-09T06:14:45.954Z,365
2017-04-09T06:15:45.712Z,360
2017-04-09T06:16:46.237Z,365
2017-04-09T06:17:45.665Z,370
2017-04-09T06:18:45.647Z,375
2017-04-09T06:19:45.680Z,380
2017-04-09T06:20:45.605Z,385
2017-04-09T06:21:45.689Z,390
2017-04-09T06:22:45.623Z,395
2017-04-09T06:23:46.457Z,400
2017-04-09T06:24:45.523Z,405
2017-04-09T06:25:45.497Z,410
2017-04-09T06:26:45.479Z,425
2017-04-09T06:27:45.514Z,425
2017-04-09T06:28:45.404Z,430
2017-04-09T06:29:45.485Z,435
2017-04-09T06:30:45.105Z,445
2017-04-09T06:31:45.392Z,450
2017-04-09T06:32:45.074Z,460
2017-04-09T06:33:45.343Z,470
2017-04-09T06:34:45.326Z,470
2017-04-09T06:35:45.306Z,475
2017-04-09T06:36:45.301Z,485
2017-04-09T06:37:45.261Z,490
2017-04-09T06:38:45.246Z,500
2017-04-09T06:39:44.923Z,515
2017-04-09T06:40:45.216Z,510
2017-04-09T06:41:45.192Z,520
2017-04-09T06:42:45.172Z,525
2017-04-09T06:43:44.854Z,535
2017-04-09T06:44:45.130Z,540
2017-04-09T06:45:45.119Z,545
2017-04-09T06:46:45.091Z,550
2017-04-09T06:47:45.092Z,555
2017-04-09T06:48:45.113Z,560
2017-04-09T06:49:44.743Z,565
2017-04-09T06:50:44.725Z,575
2017-04-09T06:51:45.008Z,580
2017-04-09T06:52:45.050Z,585
2017-04-09T06:53:45.019Z,600
2017-04-09T06:54:44.950Z,605
2017-04-09T06:55:44.960Z,615
2017-04-09T06:56:45.232Z,625
2017-04-09T06:57:44.902Z,630
2017-04-09T06:58:44.638Z,645
2017-04-09T06:59:44.866Z,630
2017-04-09T07:00:45.049Z,650
2017-04-09T07:01:44.835Z,665
2017-04-09T07:02:44.814Z,680
2017-04-09T07:03:44.831Z,680
2017-04-09T07:04:44.489Z,685
2017-04-09T07:05:44.770Z,695
2017-04-09T07:06:44.455Z,700
2017-04-09T07:07:44.742Z,705
2017-04-09T07:08:44.777Z,710
2017-04-09T07:09:44.707Z,720
2017-04-09T07:10:44.096Z,725
2017-04-09T07:11:44.670Z,735
2017-04-09T07:12:44.415Z,750
2017-04-09T07:13:44.651Z,750
2017-04-09T07:14:44.643Z,755
2017-04-09T07:15:44.602Z,765
2017-04-09T07:16:44.591Z,775
2017-04-09T07:17:44.622Z,780
2017-04-09T07:18:44.564Z,790
2017-04-09T07:19:44.543Z,810
2017-04-09T07:20:44.539Z,815
2017-04-09T07:21:44.225Z,820
2017-04-09T07:22:44.210Z,825
2017-04-09T07:23:44.494Z,830
2017-04-09T07:24:44.475Z,835
2017-04-09T07:25:44.456Z,845
2017-04-09T07:26:44.841Z,855
2017-04-09T07:27:44.138Z,865
2017-04-09T07:28:44.424Z,880
2017-04-09T07:29:44.407Z,885
2017-04-09T07:30:44.439Z,890
2017-04-09T07:31:44.362Z,890
2017-04-09T07:32:44.353Z,915
2017-04-09T07:33:44.361Z,925
2017-04-09T07:34:44.025Z,950
2017-04-09T07:35:44.310Z,970
2017-04-09T07:36:44.294Z,1000
2017-04-09T07:37:44.279Z,1040
2017-04-09T07:38:44.747Z,1045
2017-04-09T07:39:44.264Z,1060
2017-04-09T07:40:44.245Z,1075
2017-04-09T07:41:44.283Z,1080
2017-04-09T07:42:44.219Z,1105
2017-04-09T07:43:44.201Z,1115
2017-04-09T07:44:44.193Z,1110
2017-04-09T07:45:44.172Z,1125
2017-04-09T07:46:44.152Z,1130
2017-04-09T07:47:43.845Z,1130
2017-04-09T07:48:44.140Z,1145
2017-04-09T07:49:43.833Z,1160
2017-04-09T07:50:44.113Z,1170
2017-04-09T07:51:44.121Z,1175
2017-04-09T07:52:44.081Z,1180
2017-04-09T07:53:44.069Z,1190
2017-04-09T07:54:44.072Z,1200
2017-04-09T07:55:44.097Z,1205
2017-04-09T07:56:44.092Z,1225
2017-04-09T07:57:44.179Z,1240
2017-04-09T07:58:44.007Z,1235
2017-04-09T07:59:43.996Z,1240
2017-04-09T08:00:44.029Z,1230
2017-04-09T08:01:43.676Z,1240
2017-04-09T08:02:43.725Z,1245
2017-04-09T08:03:43.643Z,1245
2017-04-09T08:04:44.136Z,1260
2017-04-09T08:05:43.947Z,1260
2017-04-09T08:06:43.624Z,1280
2017-04-09T08:07:43.915Z,1300
2017-04-09T08:08:43.903Z,1305
2017-04-09T08:09:43.950Z,1335
2017-04-09T08:10:43.579Z,1320
2017-04-09T08:11:43.258Z,1325
2017-04-09T08:12:43.546Z,1335
2017-04-09T08:13:43.841Z,1340
2017-04-09T08:14:43.833Z,1360
2017-04-09T08:15:43.817Z,1350
2017-04-09T08:16:43.509Z,1365
2017-04-09T08:17:43.201Z,1370
2017-04-09T08:18:43.795Z,1390
2017-04-09T08:19:43.774Z,1385
2017-04-09T08:20:43.824Z,1395
2017-04-09T08:21:43.790Z,1395
2017-04-09T08:22:43.522Z,1410
2017-04-09T08:23:44.001Z,1425
2017-04-09T08:24:44.891Z,1435
2017-04-09T08:25:43.725Z,1440
2017-04-09T08:26:43.426Z,1450
2017-04-09T08:27:43.441Z,1425
2017-04-09T08:28:43.709Z,1450
2017-04-09T08:29:43.906Z,1455
2017-04-09T08:30:43.685Z,1460
2017-04-09T08:31:43.665Z,1475
2017-04-09T08:32:43.698Z,1500
2017-04-09T08:33:43.387Z,1505
2017-04-09T08:34:43.636Z,1500
2017-04-09T08:35:43.633Z,1520
2017-04-09T08:36:43.610Z,1490
2017-04-09T08:37:44.305Z,1395
2017-04-09T08:38:43.307Z,1310
2017-04-09T08:39:43.582Z,1295
2017-04-09T08:40:43.576Z,1295
2017-04-09T08:41:43.620Z,1295
2017-04-09T08:42:43.561Z,1315
2017-04-09T08:43:43.563Z,1315
2017-04-09T08:44:43.546Z,1325
2017-04-09T08:45:43.233Z,1340
2017-04-09T08:46:43.520Z,1350
2017-04-09T08:47:43.204Z,1350
2017-04-09T08:48:43.509Z,1360
2017-04-09T08:49:43.502Z,1370
2017-04-09T08:50:43.175Z,1370
2017-04-09T08:51:43.499Z,1370
2017-04-09T08:52:43.164Z,1375
2017-04-09T08:53:44.069Z,1380
2017-04-09T08:54:43.136Z,1475
2017-04-09T08:55:43.427Z,1525
2017-04-09T08:56:43.429Z,1430
2017-04-09T08:57:43.414Z,1390
2017-04-09T08:58:43.453Z,1395
2017-04-09T08:59:43.089Z,1395
2017-04-09T09:00:43.434Z,1405
2017-04-09T09:01:43.387Z,1415
2017-04-09T09:02:43.048Z,1435
2017-04-09T09:03:43.343Z,1420
2017-04-09T09:04:43.345Z,1400
2017-04-09T09:05:43.339Z,1365
2017-04-09T09:06:43.318Z,1355
2017-04-09T09:07:43.307Z,1370
2017-04-09T09:08:43.293Z,1350
2017-04-09T09:09:44.134Z,1330
2017-04-09T09:10:42.984Z,1285
2017-04-09T09:11:42.970Z,1285
2017-04-09T09:12:43.258Z,1305
2017-04-09T09:13:42.987Z,1330
2017-04-09T09:14:43.247Z,1335
2017-04-09T09:15:43.236Z,1340
2017-04-09T09:16:43.175Z,1370
2017-04-09T09:17:43.212Z,1390
2017-04-09T09:18:43.254Z,1405
2017-04-09T09:19:43.199Z,1410
2017-04-09T09:20:43.191Z,1425
2017-04-09T09:21:42.884Z,1420
2017-04-09T09:22:43.167Z,1415
2017-04-09T09:23:43.205Z,1405
2017-04-09T09:24:43.148Z,1405
2017-04-09T09:25:44.603Z,1410
2017-04-09T09:26:42.828Z,1405
2017-04-09T09:27:43.120Z,1400
2017-04-09T09:28:43.127Z,1410
2017-04-09T09:29:43.109Z,1405
2017-04-09T09:30:43.089Z,1410
2017-04-09T09:31:42.788Z,1410
2017-04-09T09:32:43.096Z,1415
2017-04-09T09:33:43.072Z,1425
2017-04-09T09:34:43.058Z,1440
2017-04-09T09:35:43.044Z,1455
2017-04-09T09:36:43.041Z,1460
2017-04-09T09:37:42.740Z,1445
2017-04-09T09:38:43.025Z,1425
2017-04-09T09:39:43.021Z,1410
2017-04-09T09:40:43.012Z,1395
2017-04-09T09:41:42.378Z,1370
2017-04-09T09:42:42.985Z,1340
2017-04-09T09:43:42.961Z,1315
2017-04-09T09:44:42.957Z,1300
2017-04-09T09:45:43.383Z,1305
2017-04-09T09:46:42.947Z,1310
2017-04-09T09:47:42.947Z,1310
2017-04-09T09:48:42.905Z,1315
2017-04-09T09:49:42.903Z,1315
2017-04-09T09:50:42.896Z,1350
2017-04-09T09:51:42.888Z,1360
2017-04-09T09:52:42.887Z,1390
2017-04-09T09:53:42.874Z,1430
2017-04-09T09:54:42.863Z,1465
2017-04-09T09:55:42.904Z,1475
2017-04-09T09:56:42.542Z,1510
2017-04-09T09:57:43.442Z,1525
2017-04-09T09:58:42.869Z,1520
2017-04-09T09:59:42.815Z,1525
2017-04-09T10:00:42.535Z,1540
2017-04-09T10:01:42.845Z,1555
2017-04-09T10:02:42.788Z,1550
2017-04-09T10:03:42.477Z,1540
2017-04-09T10:04:42.473Z,1530
2017-04-09T10:05:42.765Z,1545
2017-04-09T10:06:42.852Z,1555
2017-04-09T10:07:42.757Z,1555
2017-04-09T10:08:42.734Z,1560
2017-04-09T10:09:42.723Z,1555
2017-04-09T10:10:42.784Z,1570
2017-04-09T10:11:43.957Z,1580
2017-04-09T10:12:43.924Z,1585
2017-04-09T10:13:42.648Z,1580
2017-04-09T10:14:42.715Z,1585
2017-04-09T10:15:42.362Z,1585
2017-04-09T10:16:42.669Z,1585
2017-04-09T10:17:42.593Z,1570
2017-04-09T10:18:42.658Z,1585
2017-04-09T10:19:57.240Z,1565
2017-04-09T10:20:42.669Z,1575
2017-04-09T10:21:42.308Z,1595
2017-04-09T10:22:42.610Z,1145
2017-04-09T10:23:42.642Z,535
2017-04-09T10:24:42.591Z,375
2017-04-09T10:25:42.339Z,370
2017-04-09T10:26:42.265Z,365
2017-04-09T10:27:42.559Z,365
2017-04-09T10:28:42.554Z,360
2017-04-09T10:29:42.548Z,360
2017-04-09T10:30:42.221Z,355
2017-04-09T10:31:42.550Z,355
2017-04-09T10:32:42.500Z,350
2017-04-09T10:33:42.505Z,350
2017-04-09T10:34:42.473Z,345
2017-04-09T10:35:42.470Z,345
2017-04-09T10:36:42.447Z,350
2017-04-09T10:37:42.447Z,345
2017-04-09T10:38:42.133Z,345
2017-04-09T10:39:41.812Z,340
2017-04-09T10:40:42.445Z,335
2017-04-09T10:41:42.082Z,335
2017-04-09T10:42:42.059Z,335
2017-04-09T10:43:42.357Z,335
2017-04-09T10:44:42.328Z,335
2017-04-09T10:45:42.344Z,335
2017-04-09T10:46:42.297Z,335
2017-04-09T10:47:41.979Z,330
2017-04-09T10:48:41.963Z,330
2017-04-09T10:49:42.286Z,330
2017-04-09T10:50:42.243Z,330
2017-04-09T10:51:42.234Z,325
2017-04-09T10:52:41.961Z,330
2017-04-09T10:53:42.207Z,325
2017-04-09T10:54:41.866Z,325
2017-04-09T10:55:42.145Z,325
2017-04-09T10:56:41.847Z,325
2017-04-09T10:57:41.531Z,320
2017-04-09T10:58:41.803Z,320
2017-04-09T10:59:41.486Z,320
2017-04-09T11:00:42.067Z,320
2017-04-09T11:01:42.757Z,315
2017-04-09T11:02:41.720Z,310
2017-04-09T11:03:42.014Z,310
2017-04-09T11:04:41.690Z,305
2017-04-09T11:05:41.987Z,300
2017-04-09T11:06:41.951Z,305
2017-04-09T11:07:41.957Z,300
2017-04-09T11:08:41.359Z,295
2017-04-09T11:09:41.973Z,295
2017-04-09T11:10:41.584Z,295
2017-04-09T11:11:41.888Z,295
2017-04-09T11:12:41.853Z,290
2017-04-09T11:13:41.829Z,290
2017-04-09T11:14:41.518Z,285
2017-04-09T11:15:41.809Z,285
2017-04-09T11:16:41.788Z,285
2017-04-09T11:17:41.511Z,285
2017-04-09T11:18:41.737Z,280
2017-04-09T11:19:41.758Z,275
2017-04-09T11:20:41.771Z,275
2017-04-09T11:21:41.715Z,275
2017-04-09T11:22:41.678Z,275
2017-04-09T11:23:41.097Z,275
2017-04-09T11:24:41.430Z,275
2017-04-09T11:25:41.658Z,275
2017-04-09T11:26:41.606Z,275
2017-04-09T11:27:41.583Z,270
2017-04-09T11:28:41.561Z,270
2017-04-09T11:29:41.551Z,265
2017-04-09T11:30:41.529Z,265
2017-04-09T11:31:41.527Z,265
2017-04-09T11:32:41.497Z,265
2017-04-09T11:33:41.481Z,265
2017-04-09T11:34:41.814Z,260
2017-04-09T11:35:41.436Z,260
2017-04-09T11:36:41.424Z,260
2017-04-09T11:37:41.108Z,260
2017-04-09T11:38:41.834Z,260
2017-04-09T11:39:41.413Z,260
2017-04-09T11:40:41.047Z,260
2017-04-09T11:41:41.328Z,255
2017-04-09T11:42:41.305Z,255
2017-04-09T11:43:41.306Z,255
2017-04-09T11:44:40.679Z,255
2017-04-09T11:45:41.274Z,255
2017-04-09T11:46:41.254Z,255
2017-04-09T11:47:40.327Z,250
2017-04-09T11:48:41.221Z,250
2017-04-09T11:49:40.887Z,250
2017-04-09T11:50:40.875Z,245
2017-04-09T11:51:40.917Z,245
2017-04-09T11:52:41.164Z,245
2017-04-09T11:53:41.125Z,245
2017-04-09T11:54:40.503Z,240
2017-04-09T11:55:41.277Z,240
2017-04-09T11:56:41.067Z,240
2017-04-09T11:57:41.068Z,235
2017-04-09T11:58:40.724Z,235
2017-04-09T11:59:41.005Z,230
2017-04-09T12:00:40.695Z,230
2017-04-09T12:01:40.661Z,230
2017-04-09T12:02:40.962Z,230
2017-04-09T12:03:40.931Z,230
2017-04-09T12:04:40.611Z,230
2017-04-09T12:05:40.893Z,230
2017-04-09T12:06:40.574Z,230
2017-04-09T12:07:41.120Z,230
2017-04-09T12:08:40.852Z,225
2017-04-09T12:09:40.517Z,225
2017-04-09T12:10:40.867Z,225
2017-04-09T12:11:40.784Z,225
2017-04-09T12:12:40.765Z,220
2017-04-09T12:13:40.446Z,220
2017-04-09T12:14:40.429Z,220
2017-04-09T12:15:40.445Z,220
2017-04-09T12:16:40.391Z,220
2017-04-09T12:17:40.674Z,220
2017-04-09T12:18:40.652Z,215
2017-04-09T12:19:41.129Z,215
2017-04-09T12:20:40.615Z,215
2017-04-09T12:21:40.304Z,215
2017-04-09T12:22:40.323Z,215
2017-04-09T12:23:40.264Z,215
2017-04-09T12:24:40.246Z,215
2017-04-09T12:25:40.533Z,215
2017-04-09T12:26:40.512Z,215
2017-04-09T12:27:40.496Z,215
2017-04-09T12:28:40.475Z,215
2017-04-09T12:29:40.146Z,215
2017-04-09T12:30:40.432Z,210
2017-04-09T12:31:40.482Z,215
2017-04-09T12:32:40.089Z,210
2017-04-09T12:33:40.364Z,210
2017-04-09T12:34:40.372Z,210
2017-04-09T12:35:40.339Z,210
2017-04-09T12:36:40.328Z,210
2017-04-09T12:37:39.999Z,215
2017-04-09T12:38:40.290Z,215
2017-04-09T12:39:40.260Z,215
2017-04-09T12:40:39.400Z,215
2017-04-09T12:41:40.230Z,215
2017-04-09T12:42:40.220Z,215
2017-04-09T12:43:40.200Z,215
2017-04-09T12:44:40.381Z,215
2017-04-09T12:45:40.170Z,210
2017-04-09T12:46:40.134Z,210
2017-04-09T12:47:40.125Z,205
2017-04-09T12:48:40.130Z,205
2017-04-09T12:49:40.112Z,205
2017-04-09T12:50:39.785Z,205
2017-04-09T12:51:39.756Z,205
2017-04-09T12:52:39.981Z,205
2017-04-09T12:53:40.009Z,205
2017-04-09T12:54:40.025Z,200
2017-04-09T12:55:39.422Z,200
2017-04-09T12:56:40.010Z,200
2017-04-09T12:57:39.961Z,200
2017-04-09T12:58:39.321Z,200
2017-04-09T12:59:39.550Z,205
2017-04-09T13:00:39.582Z,205
2017-04-09T13:01:39.872Z,205
2017-04-09T13:02:39.855Z,200
2017-04-09T13:03:39.823Z,200
2017-04-09T13:04:39.505Z,200
2017-04-09T13:05:39.817Z,200
2017-04-09T13:06:39.782Z,200
2017-04-09T13:07:39.765Z,200
2017-04-09T13:08:39.788Z,200
2017-04-09T13:09:39.754Z,200
2017-04-09T13:10:39.699Z,200
2017-04-09T13:11:39.682Z,200
2017-04-09T13:12:39.716Z,200
2017-04-09T13:13:39.649Z,200
2017-04-09T13:14:39.327Z,195
2017-04-09T13:15:39.613Z,195
2017-04-09T13:16:39.585Z,195
2017-04-09T13:17:39.574Z,195
2017-04-09T13:18:39.555Z,190
2017-04-09T13:19:39.542Z,190
2017-04-09T13:20:38.926Z,190
2017-04-09T13:21:39.504Z,190
2017-04-09T13:22:39.491Z,190
2017-04-09T13:23:39.463Z,185
2017-04-09T13:24:39.447Z,185
2017-04-09T13:25:39.429Z,185
2017-04-09T13:26:39.413Z,180
2017-04-09T13:27:39.397Z,180
2017-04-09T13:28:39.372Z,180
2017-04-09T13:29:39.361Z,180
2017-04-09T13:30:39.398Z,175
2017-04-09T13:31:39.309Z,175
2017-04-09T13:32:39.308Z,175
2017-04-09T13:33:39.283Z,175
2017-04-09T13:34:39.272Z,175
2017-04-09T13:35:39.248Z,175
2017-04-09T13:36:39.233Z,175
2017-04-09T13:37:39.223Z,175
2017-04-09T13:38:39.205Z,175
2017-04-09T13:39:38.869Z,170
2017-04-09T13:40:39.162Z,170
2017-04-09T13:41:38.855Z,170
2017-04-09T13:42:40.584Z,170
2017-04-09T13:43:39.119Z,170
2017-04-09T13:44:39.088Z,170
2017-04-09T13:45:38.980Z,170
2017-04-09T13:46:39.057Z,165
2017-04-09T13:47:39.028Z,165
2017-04-09T13:48:39.022Z,165
2017-04-09T13:49:39.064Z,165
2017-04-09T13:50:38.677Z,165
2017-04-09T13:51:38.955Z,160
2017-04-09T13:52:38.960Z,160
2017-04-09T13:53:38.933Z,160
2017-04-09T13:54:38.910Z,155
2017-04-09T13:55:38.895Z,160
2017-04-09T13:56:38.875Z,155
2017-04-09T13:57:38.870Z,160
2017-04-09T13:58:38.857Z,160
2017-04-09T13:59:38.835Z,160
2017-04-09T14:00:38.798Z,160
2017-04-09T14:01:38.777Z,160
2017-04-09T14:02:38.461Z,160